Tropical Cyclones
[Index]
Main Index Home Page Stock Weather Photos Extreme Storms Discussion Storm News and Storm Chasing Reports Tropical Cyclones / Hurricanes / Typhoons Weather Data and Links Wild Fires / Bushfires Weather Observation Techniques Weather Picture Catalogue Tornado Pictures and Reports Stock Video Footage and DVDs for sale
Season 2010-2011 Tropical Cyclone ANTHONY Track Map
Season 2010-2011 Summaries: [BoM-AU] [JTWC-AU] [JTWC-SIO] [JTWC-SPAC] [JTWC-SH]
<<- Previous TC | JTWC 2010-2011 Season | Next TC ->>

click for intensity scale information  Lat/long Grid: Show Hide

 Date Labels: Show Hide

Joint Typhoon Warning Centre Cyclone Data

Name: ANTHONY

22 Jan 2011 12:00 UTC to 31 Jan 2011 00:00 UTC

    date/time    lat    long     hPa   cat  kts
2011-01-22 12   15.7   146.6    1002         25          
2011-01-22 18   15.5   147.8    1001         25          
2011-01-23 00   15.5   149.0     996         35          
2011-01-23 06   15.8   150.9     993    1    40          
2011-01-23 12   16.4   153.1     993    1    40          
2011-01-23 18   17.0   155.0     993    1    40          
2011-01-24 00   17.7   156.9     993    1    40          
2011-01-24 06   18.5   158.6     993    1    40          
2011-01-24 12   18.9   159.7     993    1    40          
2011-01-24 18   19.0   160.5     993    1    40          
2011-01-25 00   19.4   160.9     996         35          
2011-01-25 06   19.5   160.7    1000         30          
2011-01-25 12   19.5   160.4    1000         30          
2011-01-25 18   19.3   160.0    1000         30          
2011-01-26 00   19.2   159.6    1000         30          
2011-01-26 06   18.9   158.7    1004         25          
2011-01-26 12   18.7   157.8    1004         25          
2011-01-26 18   18.3   156.7    1004         25          
2011-01-27 00   17.9   155.6    1004         25          
2011-01-27 06   17.4   155.0    1004         25          
2011-01-27 12   16.9   155.1    1004         25          
2011-01-27 18   16.6   155.3    1004         25          
2011-01-28 00   16.2   155.5    1000         30          
2011-01-28 06   15.8   155.3    1000         30          
2011-01-28 12   15.5   155.1    1000         30          
2011-01-28 18   15.2   154.8    1000         30          
2011-01-29 00   15.1   154.3    1002         25          
2011-01-29 06   15.4   153.9    1004         25          
2011-01-29 12   16.3   153.4    1000         30          
2011-01-29 18   17.3   152.4     996         35          
2011-01-30 00   18.3   151.1     993    1    40          
2011-01-30 06   19.3   149.5     985    1    50          
2011-01-30 12   20.0   148.1     982    2    55          
2011-01-30 18   21.3   146.7     993    1    40          
2011-01-31 00   22.4   144.8    1000         30          
Winds are 1-min average.

Tropical cyclone tracks developed by Michael Bath using data from the Joint Typhoon Warning Centre Best Tracks and Google Maps.


[Australian Severe Weather index] [Copyright Notice] [Email Contacts] [Search This Site] [Privacy Policy]
Document: tropical_cyclone_anthony.htm Updated: 28 June 2017